Puritan, Pennsylvania
Current Conditions -  °F | °C
As of 9:54 PM on Wednesday 22 Oct 2014 (Local Time) from KJST Reporting Station
Overcast Overcast  
Wind Chill: 36°   Ceiling: 800
Heat Index: 42°   Visibility: 10mi
Dew Point: 38°   Wind: 10mph
Humidity: 85%   Direction: 330°NNW
Pressure: 30.1"   Gusts: NA
Location:  40.3821°N, 78.6524°W
Report Text: KJST 230154Z AUTO 33009KT 10SM OVC008 06/03 A3010 RMK AO2 SLP204 T00560033
Loading
Personal Weather Stations






























Interactive Weather Map
Tropical Storm Tracking
New forecast layout! Learn more

10-Day Weather Forecast

Advertisements
Track Severe Weather on mobile